Terminal Aerodrome Forecast
Issued by NWS

Home | Current Version | Previous Version | Text Only | Print | Product List | Glossary On
Versions: 1 2 3 4 5 6 7 8 9 10 11 12 13 14 15
000
FTUS44 KOUN 200520
TAFPNC
TAF
KPNC 200520Z 2006/2106 09008KT P6SM BKN250
     FM201400 13013G19KT P6SM BKN250
     FM210000 12012KT P6SM OVC080 PROB30 2103/2106 -RA OVC040=

USA.gov is the U.S. government's official web portal to all federal, state and local government web resources and services.